Time;durP1;ratioP1;P1;durP2;ratioP2;P2;SDS_P1;SDS_P2;PMS_P1;PMS_P2;Temp;Humidity;BMP_temperature;BMP_pressure;BME280_temperature;BME280_humidity;BME280_pressure;Samples;Min_cycle;Max_cycle;Signal;HPM_P1;HPM_P2
2023/12/12 00:01:36;;;;;;;22.00;15.20;;;;;;;5.71;100.00;98503.37;103352;1256;139459;-75
2023/12/12 00:04:03;;;;;;;20.80;15.00;;;;;;;5.81;99.96;98505.23;102991;1255;111471;-75
2023/12/12 00:06:30;;;;;;;22.10;16.20;;;;;;;5.84;99.74;98504.92;102984;1256;107058;-75
2023/12/12 00:08:56;;;;;;;25.50;16.50;;;;;;;5.86;99.49;98509.29;102890;1257;139232;-75
2023/12/12 00:11:23;;;;;;;21.80;16.50;;;;;;;5.87;99.15;98514.77;103013;1254;107761;-76
2023/12/12 00:13:50;;;;;;;22.00;16.00;;;;;;;5.81;98.65;98517.42;102530;1255;1003091;-76
2023/12/12 00:16:17;;;;;;;23.50;15.90;;;;;;;5.73;98.47;98512.73;102277;1256;1003201;-76
2023/12/12 00:18:44;;;;;;;19.90;14.60;;;;;;;5.69;98.61;98512.23;103096;1259;107389;-76
2023/12/12 00:21:11;;;;;;;19.50;14.80;;;;;;;5.68;98.67;98513.15;102970;1260;139175;-76
2023/12/12 00:23:38;;;;;;;19.60;14.40;;;;;;;5.64;98.66;98517.77;103009;1256;107168;-76
2023/12/12 00:26:07;;;;;;;19.00;14.10;;;;;;;5.64;98.95;98521.58;102899;1259;138857;-77
2023/12/12 00:28:35;;;;;;;20.30;14.40;;;;;;;5.62;98.79;98520.43;103106;1257;111585;-76
2023/12/12 00:31:03;;;;;;;21.20;15.70;;;;;;;5.61;98.74;98525.48;102896;1256;138203;-76
2023/12/12 00:33:30;;;;;;;20.70;15.00;;;;;;;5.63;99.13;98521.80;103038;1259;97683;-76
2023/12/12 00:35:57;;;;;;;22.10;16.20;;;;;;;5.60;98.78;98524.17;102998;1256;107419;-76
2023/12/12 00:38:28;;;;;;;21.60;15.30;;;;;;;5.57;99.21;98527.20;102864;1259;137848;-76
2023/12/12 00:40:56;;;;;;;20.40;14.80;;;;;;;5.58;99.30;98528.20;102212;1259;1002466;-76
2023/12/12 00:43:24;;;;;;;18.00;13.10;;;;;;;5.62;99.81;98529.94;102874;1256;139071;-74
2023/12/12 00:45:52;;;;;;;17.30;12.80;;;;;;;5.69;100.00;98529.80;102986;1259;98323;-76
2023/12/12 00:48:19;;;;;;;16.90;12.90;;;;;;;5.76;99.92;98529.21;103034;1256;107462;-74
2023/12/12 00:50:48;;;;;;;18.10;13.30;;;;;;;5.85;99.94;98528.84;102872;1256;138388;-74
2023/12/12 00:53:15;;;;;;;18.70;13.50;;;;;;;5.89;99.70;98529.02;103020;1259;111309;-75
2023/12/12 00:55:42;;;;;;;18.70;14.00;;;;;;;5.96;99.71;98534.97;102895;1259;138157;-74
2023/12/12 00:58:09;;;;;;;21.20;14.50;;;;;;;5.99;99.58;98532.11;103091;1256;97790;-76
2023/12/12 01:00:36;;;;;;;21.30;13.30;;;;;;;5.97;99.13;98535.96;103088;1257;106907;-76
2023/12/12 01:03:03;;;;;;;19.10;13.40;;;;;;;5.94;99.03;98538.34;102899;1256;138655;-75
2023/12/12 01:05:29;;;;;;;15.90;12.50;;;;;;;5.91;98.99;98533.60;103040;1256;110694;-75
2023/12/12 01:07:56;;;;;;;17.30;11.10;;;;;;;5.94;99.27;98535.09;102881;1257;138771;-75
2023/12/12 01:10:24;;;;;;;14.80;11.40;;;;;;;5.94;99.33;98537.30;103110;1257;97800;-75
2023/12/12 01:12:51;;;;;;;14.80;10.90;;;;;;;5.94;99.14;98538.34;103070;1259;106840;-76
2023/12/12 01:15:17;;;;;;;17.60;11.40;;;;;;;5.94;99.25;98539.90;102847;1256;138520;-76
2023/12/12 01:17:44;;;;;;;17.30;11.70;;;;;;;6.01;99.46;98546.33;102361;1259;1003160;-76
2023/12/12 01:20:12;;;;;;;17.50;12.20;;;;;;;6.07;99.51;98547.45;102960;1256;138014;-76
2023/12/12 01:22:39;;;;;;;17.10;12.70;;;;;;;6.12;99.52;98552.11;103128;1259;98332;-76
2023/12/12 01:25:08;;;;;;;15.80;12.10;;;;;;;6.13;99.04;98555.52;102969;1255;138180;-74
2023/12/12 01:27:34;;;;;;;18.00;12.20;;;;;;;6.10;98.89;98552.02;102988;1256;97782;-75
2023/12/12 01:30:01;;;;;;;16.90;11.70;;;;;;;6.08;98.67;98555.36;103032;1256;111304;-74
2023/12/12 01:32:28;;;;;;;15.80;11.10;;;;;;;6.04;98.68;98553.27;102864;1259;138510;-73
2023/12/12 01:34:55;;;;;;;13.90;10.60;;;;;;;6.04;98.86;98559.98;102276;1255;1003097;-75
2023/12/12 01:37:22;;;;;;;16.10;11.30;;;;;;;6.08;98.89;98563.48;102961;1257;139110;-75
2023/12/12 01:39:49;;;;;;;17.80;11.80;;;;;;;6.10;98.92;98560.47;103106;1257;97941;-74
2023/12/12 01:42:16;;;;;;;18.40;12.50;;;;;;;6.14;98.96;98563.44;103086;1259;111509;-74
2023/12/12 01:44:43;;;;;;;16.60;12.40;;;;;;;6.11;98.63;98568.71;102968;1256;138042;-74
2023/12/12 01:47:10;;;;;;;17.20;12.20;;;;;;;6.10;98.62;98568.58;103131;1259;97730;-74
2023/12/12 01:49:37;;;;;;;16.10;11.00;;;;;;;6.05;98.37;98571.17;102879;1256;138591;-74
2023/12/12 01:52:05;;;;;;;16.80;11.60;;;;;;;6.00;98.45;98570.70;102900;1256;97814;-74
2023/12/12 01:54:36;;;;;;;16.50;11.10;;;;;;;5.99;98.63;98567.13;102277;1256;1016366;-74
2023/12/12 01:57:03;;;;;;;15.40;11.10;;;;;;;6.01;99.01;98565.84;102127;1259;1003446;-74
2023/12/12 01:59:30;;;;;;;15.80;11.80;;;;;;;6.03;99.17;98570.20;103028;1259;99568;-73
2023/12/12 02:01:57;;;;;;;15.80;11.80;;;;;;;6.08;99.11;98571.41;102779;1258;138389;-74
2023/12/12 02:04:24;;;;;;;15.30;11.30;;;;;;;6.09;98.94;98576.20;102970;1256;98054;-74
2023/12/12 02:06:56;;;;;;;17.70;12.00;;;;;;;6.10;99.06;98576.86;103003;1257;110675;-73
2023/12/12 02:09:25;;;;;;;18.00;13.20;;;;;;;6.10;98.94;98581.01;103018;1256;107703;-73
2023/12/12 02:11:52;;;;;;;16.70;12.70;;;;;;;6.08;98.94;98589.02;102990;1256;97820;-73
2023/12/12 02:14:18;;;;;;;17.00;11.60;;;;;;;6.08;99.01;98588.67;102862;1256;139143;-74
2023/12/12 02:16:46;;;;;;;17.90;12.40;;;;;;;6.04;99.02;98593.13;102888;1259;97807;-73
2023/12/12 02:19:14;;;;;;;18.20;11.60;;;;;;;6.03;99.20;98592.81;102932;1259;138565;-73
2023/12/12 02:21:41;;;;;;;18.40;12.40;;;;;;;6.03;99.19;98592.98;102969;1259;107525;-73
2023/12/12 02:24:08;;;;;;;16.90;11.80;;;;;;;6.05;99.31;98597.90;102967;1259;98342;-74
2023/12/12 02:26:35;;;;;;;17.40;12.70;;;;;;;6.09;99.18;98603.98;102925;1256;138052;-74
2023/12/12 02:29:02;;;;;;;18.10;12.60;;;;;;;6.12;99.32;98605.77;103070;1256;97694;-73
2023/12/12 02:31:29;;;;;;;19.70;14.30;;;;;;;6.12;98.86;98602.14;102904;1259;138061;-73
2023/12/12 02:33:56;;;;;;;21.00;15.00;;;;;;;6.09;98.69;98594.65;103025;1256;107328;-74
2023/12/12 02:36:23;;;;;;;19.20;13.70;;;;;;;6.05;98.63;98595.86;102322;1256;1002543;-73
2023/12/12 02:38:50;;;;;;;18.70;14.10;;;;;;;6.04;98.89;98599.34;102868;1259;140822;-73
2023/12/12 02:41:16;;;;;;;15.90;12.20;;;;;;;6.03;98.75;98596.96;103055;1256;97800;-73
2023/12/12 02:43:43;;;;;;;20.00;13.20;;;;;;;6.04;98.99;98595.20;103426;1255;138490;-74
2023/12/12 02:46:10;;;;;;;18.50;13.10;;;;;;;6.06;98.88;98596.68;104063;1255;107811;-74
2023/12/12 02:48:37;;;;;;;23.90;13.70;;;;;;;6.08;98.90;98603.33;103930;1256;96608;-74
2023/12/12 02:51:04;;;;;;;18.20;13.90;;;;;;;6.11;99.05;98601.65;102869;1256;137741;-73
2023/12/12 02:53:31;;;;;;;20.60;14.80;;;;;;;6.16;99.03;98601.64;103001;1258;97744;-73
2023/12/12 02:55:58;;;;;;;22.80;16.20;;;;;;;6.20;99.07;98603.19;103857;1256;138315;-74
2023/12/12 02:58:25;;;;;;;23.90;15.40;;;;;;;6.18;98.72;98605.87;103510;1255;106234;-73
2023/12/12 03:00:52;;;;;;;23.30;14.60;;;;;;;6.11;98.32;98606.48;103050;1257;98319;-74
2023/12/12 03:03:19;;;;;;;20.70;14.60;;;;;;;6.06;98.29;98612.53;102999;1256;140132;-74
2023/12/12 03:05:46;;;;;;;21.90;14.60;;;;;;;6.04;98.28;98618.15;102992;1260;97815;-72
2023/12/12 03:08:13;;;;;;;25.10;16.10;;;;;;;6.08;98.68;98621.44;103018;1256;138048;-72
2023/12/12 03:10:40;;;;;;;22.90;16.00;;;;;;;6.11;98.73;98619.61;103002;1259;107684;-72
2023/12/12 03:13:06;;;;;;;25.80;16.70;;;;;;;6.12;98.27;98625.96;103750;1256;138760;-73
2023/12/12 03:15:33;;;;;;;29.60;17.40;;;;;;;6.08;98.38;98626.61;104512;1256;106224;-73
2023/12/12 03:18:00;;;;;;;30.40;17.60;;;;;;;6.06;98.40;98628.41;103205;1259;98184;-73
2023/12/12 03:20:27;;;;;;;22.90;15.90;;;;;;;6.08;98.68;98629.74;103656;1257;138382;-72
2023/12/12 03:22:54;;;;;;;24.70;16.00;;;;;;;6.09;98.55;98628.66;103008;1257;107521;-72
2023/12/12 03:25:20;;;;;;;28.50;16.70;;;;;;;6.08;98.68;98633.02;102951;1259;138656;-73
2023/12/12 03:27:47;;;;;;;27.90;16.20;;;;;;;6.09;98.62;98636.59;102973;1255;106476;-73
2023/12/12 03:30:14;;;;;;;32.20;16.90;;;;;;;6.11;98.57;98636.72;103008;1256;97683;-72
2023/12/12 03:32:41;;;;;;;26.10;17.20;;;;;;;6.13;98.75;98641.82;102974;1256;138597;-72
2023/12/12 03:35:09;;;;;;;37.60;18.70;;;;;;;6.16;98.89;98638.94;102980;1259;106659;-72
2023/12/12 03:37:36;;;;;;;37.40;19.30;;;;;;;6.17;98.75;98637.98;102896;1256;138712;-71
2023/12/12 03:40:04;;;;;;;34.90;19.30;;;;;;;6.18;98.64;98644.16;103029;1256;107723;-72
2023/12/12 03:42:30;;;;;;;32.70;19.30;;;;;;;6.15;98.45;98642.23;102998;1255;97679;-72
2023/12/12 03:44:57;;;;;;;30.10;18.50;;;;;;;6.10;98.31;98647.77;102962;1256;138442;-72
2023/12/12 03:47:24;;;;;;;35.70;19.00;;;;;;;6.08;98.48;98649.55;102879;1255;107281;-72
2023/12/12 03:49:51;;;;;;;36.20;19.10;;;;;;;6.04;98.40;98649.70;102936;1257;138659;-72
2023/12/12 03:52:18;;;;;;;41.00;20.00;;;;;;;6.02;98.54;98656.36;103432;1257;106795;-72
2023/12/12 03:54:45;;;;;;;47.90;19.70;;;;;;;6.03;98.69;98656.33;102380;1255;1003269;-72
2023/12/12 03:57:12;;;;;;;44.70;20.40;;;;;;;6.05;99.00;98655.71;103558;1258;1002914;-72
2023/12/12 03:59:39;;;;;;;55.50;22.00;;;;;;;6.09;99.23;98657.66;102350;1256;1002852;-72
2023/12/12 04:02:06;;;;;;;40.90;21.50;;;;;;;6.07;98.76;98659.96;102935;1257;137999;-72
2023/12/12 04:04:33;;;;;;;40.50;19.60;;;;;;;6.03;98.82;98657.34;103420;1255;108347;-72
2023/12/12 04:07:00;;;;;;;34.00;19.20;;;;;;;6.03;99.03;98654.08;104032;1256;97830;-72
2023/12/12 04:09:27;;;;;;;40.90;18.90;;;;;;;6.00;98.91;98653.86;103387;1257;109953;-71
2023/12/12 04:11:53;;;;;;;39.80;19.60;;;;;;;5.99;98.97;98657.20;104502;1255;107243;-71
2023/12/12 04:14:20;;;;;;;37.70;19.80;;;;;;;5.98;98.91;98660.84;104387;1256;138665;-72
2023/12/12 04:16:47;;;;;;;45.80;19.70;;;;;;;5.97;98.87;98660.69;104528;1255;107695;-73
2023/12/12 04:19:14;;;;;;;38.60;20.80;;;;;;;5.98;99.05;98663.91;103034;1258;138367;-71
2023/12/12 04:21:43;;;;;;;41.80;20.70;;;;;;;5.99;99.13;98666.33;102999;1259;110361;-71
2023/12/12 04:24:10;;;;;;;35.90;19.10;;;;;;;5.98;98.95;98667.57;103001;1259;106534;-72
2023/12/12 04:26:37;;;;;;;26.70;16.90;;;;;;;5.96;98.91;98669.91;102948;1259;138647;-73
2023/12/12 04:29:05;;;;;;;23.90;17.10;;;;;;;5.95;99.16;98667.66;103117;1256;108516;-71
2023/12/12 04:31:31;;;;;;;22.70;14.80;;;;;;;5.95;98.86;98673.02;102999;1259;138807;-72
2023/12/12 04:33:59;;;;;;;23.00;16.10;;;;;;;5.96;99.15;98673.16;103061;1256;110961;-72
2023/12/12 04:36:26;;;;;;;21.30;16.10;;;;;;;5.98;99.15;98676.16;103049;1259;107417;-72
2023/12/12 04:38:53;;;;;;;27.30;16.70;;;;;;;6.00;99.28;98674.39;102896;1259;138342;-72
2023/12/12 04:41:20;;;;;;;21.20;15.80;;;;;;;5.97;98.83;98676.76;103097;1259;107115;-72
2023/12/12 04:43:46;;;;;;;21.40;14.90;;;;;;;5.94;98.99;98681.18;103029;1254;138907;-72
2023/12/12 04:46:20;;;;;;;20.80;14.60;;;;;;;5.91;98.87;98679.55;103044;1256;110355;-71
2023/12/12 04:48:47;;;;;;;21.10;15.60;;;;;;;5.92;99.11;98679.68;102941;1257;106863;-71
2023/12/12 04:51:15;;;;;;;26.10;16.90;;;;;;;5.95;99.30;98679.58;102995;1256;138353;-71
2023/12/12 04:53:41;;;;;;;23.70;17.70;;;;;;;5.99;99.05;98685.66;103009;1256;107252;-73
2023/12/12 04:56:10;;;;;;;44.60;19.80;;;;;;;6.01;99.26;98679.85;102985;1259;138046;-72
2023/12/12 04:58:36;;;;;;;51.80;21.20;;;;;;;6.05;99.50;98681.58;103038;1256;110629;-72
2023/12/12 05:01:03;;;;;;;38.70;21.30;;;;;;;6.09;99.44;98680.23;102015;1256;1003592;-72
2023/12/12 05:03:32;;;;;;;39.30;21.40;;;;;;;6.04;98.88;98684.58;103843;1255;96383;-72
2023/12/12 05:06:00;;;;;;;37.30;21.50;;;;;;;5.99;98.81;98689.27;103257;1256;108939;-72
2023/12/12 05:08:27;;;;;;;37.10;21.50;;;;;;;5.95;98.80;98694.60;102903;1259;139152;-72
2023/12/12 05:10:54;;;;;;;46.90;21.00;;;;;;;5.93;99.21;98697.58;103064;1257;112145;-71
2023/12/12 05:13:20;;;;;;;38.60;20.80;;;;;;;5.99;99.78;98698.42;103370;1256;1002461;-70
2023/12/12 05:15:47;;;;;;;56.20;22.60;;;;;;;6.04;99.81;98699.95;104491;1256;96034;-71
2023/12/12 05:18:14;;;;;;;49.90;24.60;;;;;;;6.08;99.60;98701.70;104018;1259;175568;-71
2023/12/12 05:20:41;;;;;;;52.10;24.50;;;;;;;6.08;99.59;98710.98;102905;1257;137940;-71
2023/12/12 05:23:08;;;;;;;50.60;25.10;;;;;;;6.14;99.83;98711.30;103052;1258;110862;-71
2023/12/12 05:25:35;;;;;;;50.80;23.20;;;;;;;6.16;99.90;98720.54;103061;1257;138086;-71
2023/12/12 05:28:01;;;;;;;62.20;24.10;;;;;;;6.17;99.75;98722.91;104499;1256;96489;-71
2023/12/12 05:30:28;;;;;;;56.40;23.80;;;;;;;6.18;99.80;98726.17;103623;1256;1002810;-71
2023/12/12 05:32:55;;;;;;;51.50;23.20;;;;;;;6.19;99.50;98726.65;104409;1256;139302;-72
2023/12/12 05:35:23;;;;;;;43.80;21.30;;;;;;;6.17;99.29;98729.98;103857;1256;111986;-72
2023/12/12 05:37:50;;;;;;;46.70;21.40;;;;;;;6.18;99.40;98732.38;104356;1255;138595;-72
2023/12/12 05:40:17;;;;;;;43.70;22.30;;;;;;;6.19;99.21;98733.34;104417;1256;95961;-72
2023/12/12 05:42:44;;;;;;;34.60;22.10;;;;;;;6.20;99.13;98736.42;104449;1256;107104;-71
2023/12/12 05:45:11;;;;;;;33.40;20.80;;;;;;;6.22;99.04;98741.52;104323;1256;137836;-70
2023/12/12 05:47:38;;;;;;;37.40;22.10;;;;;;;6.22;98.97;98739.45;102374;1256;1003013;-72
2023/12/12 05:50:06;;;;;;;50.30;21.90;;;;;;;6.21;99.02;98744.66;103817;1257;139536;-71
2023/12/12 05:52:33;;;;;;;36.10;21.00;;;;;;;6.16;98.53;98753.52;103102;1256;98797;-71
2023/12/12 05:55:00;;;;;;;37.50;20.60;;;;;;;6.14;98.75;98757.20;103004;1257;106740;-71
2023/12/12 05:57:27;;;;;;;27.50;18.60;;;;;;;6.15;99.01;98759.05;104432;1255;96894;-70
2023/12/12 05:59:56;;;;;;;30.40;19.30;;;;;;;6.21;99.51;98763.67;104273;1256;112366;-72
2023/12/12 06:02:23;;;;;;;25.50;18.30;;;;;;;6.27;99.55;98768.42;103983;1256;140646;-72
2023/12/12 06:04:51;;;;;;;38.00;19.70;;;;;;;6.33;99.51;98770.42;102976;1259;99037;-71
2023/12/12 06:07:18;;;;;;;28.80;20.60;;;;;;;6.31;98.49;98772.42;102908;1255;138271;-71
2023/12/12 06:09:45;;;;;;;28.10;20.30;;;;;;;6.32;98.85;98776.34;103230;1254;97683;-71
2023/12/12 06:12:12;;;;;;;31.00;20.00;;;;;;;6.30;98.50;98775.38;104556;1256;110999;-74
2023/12/12 06:14:38;;;;;;;36.20;21.70;;;;;;;6.29;98.46;98781.45;103091;1256;137841;-72
2023/12/12 06:17:06;;;;;;;40.70;20.70;;;;;;;6.27;98.42;98782.41;103041;1259;98841;-70
2023/12/12 06:19:34;;;;;;;49.10;21.40;;;;;;;6.22;98.56;98786.39;102903;1256;138597;-71
2023/12/12 06:22:01;;;;;;;44.20;20.60;;;;;;;6.22;98.49;98790.52;102960;1259;98424;-70
2023/12/12 06:24:30;;;;;;;56.90;21.80;;;;;;;6.21;98.54;98791.79;102976;1257;111864;-70
2023/12/12 06:26:57;;;;;;;57.50;21.00;;;;;;;6.19;98.31;98791.52;103145;1259;138526;-71
2023/12/12 06:29:24;;;;;;;43.10;21.50;;;;;;;6.15;98.46;98791.48;104405;1256;96165;-72
2023/12/12 06:31:51;;;;;;;53.90;21.50;;;;;;;6.16;98.83;98795.77;103818;1259;138647;-69
2023/12/12 06:34:18;;;;;;;54.60;21.90;;;;;;;6.17;98.68;98796.09;103089;1257;96317;-69
2023/12/12 06:36:45;;;;;;;75.60;23.20;;;;;;;6.16;98.55;98795.77;103666;1256;1003035;-69
2023/12/12 06:39:13;;;;;;;69.10;23.20;;;;;;;6.17;98.84;98800.23;104322;1259;138119;-71
2023/12/12 06:41:39;;;;;;;82.50;23.60;;;;;;;6.19;99.05;98806.69;103528;1259;97698;-69
2023/12/12 06:44:07;;;;;;;59.40;23.10;;;;;;;6.17;98.77;98813.34;104387;1256;138475;-70
2023/12/12 06:46:33;;;;;;;65.20;24.70;;;;;;;6.15;98.72;98820.66;104471;1255;95958;-69
2023/12/12 06:49:00;;;;;;;75.30;24.80;;;;;;;6.11;98.69;98816.33;104489;1256;110898;-71
2023/12/12 06:51:31;;;;;;;68.60;23.70;;;;;;;6.09;98.83;98820.88;103489;1256;106909;-68
2023/12/12 06:53:58;;;;;;;85.40;26.20;;;;;;;6.10;98.93;98825.69;102831;1255;97853;-68
2023/12/12 06:56:26;;;;;;;74.40;25.40;;;;;;;6.12;99.16;98822.85;102979;1256;138302;-69
2023/12/12 06:58:52;;;;;;;70.40;25.80;;;;;;;6.15;99.33;98825.86;102962;1259;97791;-68
2023/12/12 07:01:19;;;;;;;73.20;25.30;;;;;;;6.11;99.17;98826.68;102714;1256;139219;-68
2023/12/12 07:03:46;;;;;;;55.60;24.30;;;;;;;6.17;99.49;98826.44;103078;1259;109056;-68
2023/12/12 07:06:13;;;;;;;69.20;25.70;;;;;;;6.23;99.59;98828.27;103278;1256;97861;-67
2023/12/12 07:08:40;;;;;;;68.50;25.90;;;;;;;6.30;99.71;98829.79;102982;1257;137857;-68
2023/12/12 07:11:08;;;;;;;58.00;26.40;;;;;;;6.31;99.26;98834.56;103169;1259;97783;-69
2023/12/12 07:13:34;;;;;;;72.00;25.90;;;;;;;6.30;99.03;98834.77;103005;1259;139622;-68
2023/12/12 07:16:01;;;;;;;63.50;25.90;;;;;;;6.28;99.08;98837.61;103216;1259;107271;-68
2023/12/12 07:18:29;;;;;;;45.90;23.80;;;;;;;6.24;98.90;98836.73;104496;1256;96260;-68
2023/12/12 07:20:56;;;;;;;54.60;23.40;;;;;;;6.23;98.96;98837.62;103015;1256;139565;-69
2023/12/12 07:23:23;;;;;;;45.30;24.50;;;;;;;6.22;98.89;98836.45;103757;1259;97785;-68
2023/12/12 07:25:49;;;;;;;40.70;23.60;;;;;;;6.27;99.30;98836.42;103016;1259;138492;-69
2023/12/12 07:28:16;;;;;;;49.30;25.10;;;;;;;6.31;99.15;98839.91;103105;1259;107427;-69
2023/12/12 07:30:44;;;;;;;47.70;25.90;;;;;;;6.38;99.63;98841.91;103156;1256;97800;-68
2023/12/12 07:33:12;;;;;;;55.20;25.50;;;;;;;6.45;99.25;98844.89;103042;1259;137733;-69
2023/12/12 07:35:40;;;;;;;53.30;26.30;;;;;;;6.44;99.06;98846.13;102359;1259;1003812;-68
2023/12/12 07:38:07;;;;;;;55.30;25.80;;;;;;;6.43;98.64;98851.88;103551;1259;138849;-69
2023/12/12 07:40:33;;;;;;;40.20;24.10;;;;;;;6.39;98.58;98853.27;103045;1257;108067;-68
2023/12/12 07:43:00;;;;;;;53.20;24.60;;;;;;;6.39;98.66;98859.45;102196;1256;1002993;-69
2023/12/12 07:45:27;;;;;;;63.20;26.30;;;;;;;6.39;98.48;98865.01;102955;1256;139051;-69
2023/12/12 07:47:54;;;;;;;69.30;25.90;;;;;;;6.38;98.38;98867.63;103115;1255;97926;-69
2023/12/12 07:50:21;;;;;;;51.60;25.70;;;;;;;6.37;98.24;98868.34;102860;1256;138556;-68
2023/12/12 07:52:48;;;;;;;50.50;27.50;;;;;;;6.38;98.29;98871.09;103288;1259;107964;-68
2023/12/12 07:55:15;;;;;;;50.40;27.00;;;;;;;6.37;98.35;98870.59;102928;1256;138285;-68
2023/12/12 07:57:42;;;;;;;60.00;27.20;;;;;;;6.38;98.11;98880.39;103021;1256;108922;-69
2023/12/12 08:00:12;;;;;;;50.40;27.20;;;;;;;6.32;98.11;98883.40;103110;1256;97797;-68
2023/12/12 08:02:40;;;;;;;49.50;27.00;;;;;;;6.29;98.30;98883.83;103579;1256;138399;-68
2023/12/12 08:05:07;;;;;;;44.10;26.10;;;;;;;6.32;98.42;98888.05;103050;1256;107812;-68
2023/12/12 08:07:35;;;;;;;49.30;26.30;;;;;;;6.33;98.34;98893.02;102994;1257;139046;-69
2023/12/12 08:10:03;;;;;;;62.10;29.00;;;;;;;6.35;98.54;98897.06;103125;1256;107014;-68
2023/12/12 08:12:30;;;;;;;55.60;28.90;;;;;;;6.37;98.27;98900.29;103100;1256;97681;-69
2023/12/12 08:14:57;;;;;;;64.00;28.80;;;;;;;6.39;98.18;98902.47;102981;1257;139534;-69
2023/12/12 08:17:24;;;;;;;55.70;29.70;;;;;;;6.42;98.69;98904.59;103104;1257;107965;-69
2023/12/12 08:19:51;;;;;;;57.40;28.80;;;;;;;6.46;98.67;98905.13;103001;1256;137775;-69
2023/12/12 08:22:18;;;;;;;55.50;29.00;;;;;;;6.46;98.29;98909.27;103088;1256;107753;-67
2023/12/12 08:24:50;;;;;;;53.20;29.60;;;;;;;6.44;98.22;98913.30;103107;1259;97872;-68
2023/12/12 08:27:17;;;;;;;65.20;28.80;;;;;;;6.45;98.14;98916.04;102304;1259;1002766;-67
2023/12/12 08:29:45;;;;;;;63.90;28.30;;;;;;;6.44;98.11;98914.17;103464;1257;107948;-68
2023/12/12 08:32:12;;;;;;;54.50;29.60;;;;;;;6.42;97.92;98910.98;103147;1257;138387;-68
2023/12/12 08:34:39;;;;;;;74.50;31.80;;;;;;;6.43;97.44;98921.65;103143;1257;107620;-68
2023/12/12 08:37:06;;;;;;;79.30;30.90;;;;;;;6.44;97.82;98929.89;103132;1257;98010;-70
2023/12/12 08:39:33;;;;;;;86.30;32.20;;;;;;;6.42;97.54;98930.14;103112;1256;110893;-68
2023/12/12 08:42:01;;;;;;;63.30;27.30;;;;;;;6.36;97.68;98932.42;103125;1259;107790;-68
2023/12/12 08:44:28;;;;;;;47.40;27.30;;;;;;;6.34;97.46;98930.96;103027;1256;138614;-69
2023/12/12 08:46:55;;;;;;;48.30;27.40;;;;;;;6.32;97.52;98932.22;103124;1256;107664;-68
2023/12/12 08:49:21;;;;;;;54.60;32.00;;;;;;;6.34;97.87;98934.73;103084;1259;138765;-69
2023/12/12 08:51:49;;;;;;;50.50;32.00;;;;;;;6.37;97.98;98941.36;103099;1259;112113;-68
2023/12/12 08:54:16;;;;;;;41.80;27.70;;;;;;;6.38;97.83;98943.94;103117;1256;107702;-68
2023/12/12 08:56:49;;;;;;;42.90;26.20;;;;;;;6.38;97.87;98950.13;103390;1256;138806;-68
2023/12/12 08:59:18;;;;;;;46.90;27.30;;;;;;;6.42;97.92;98950.17;103121;1259;107322;-68
2023/12/12 09:01:45;;;;;;;49.80;28.70;;;;;;;6.42;98.03;98952.76;102999;1256;138601;-67
2023/12/12 09:04:14;;;;;;;50.70;29.80;;;;;;;6.43;97.93;98954.61;103131;1259;110192;-68
2023/12/12 09:06:41;;;;;;;53.70;30.60;;;;;;;6.44;97.96;98953.55;103156;1259;107231;-69
2023/12/12 09:09:08;;;;;;;50.70;29.40;;;;;;;6.44;97.71;98958.19;102327;1256;1002648;-68
2023/12/12 09:11:35;;;;;;;53.40;28.30;;;;;;;6.43;97.79;98953.91;103024;1259;107184;-68
2023/12/12 09:14:02;;;;;;;35.50;23.10;;;;;;;6.43;97.81;98950.14;102231;1256;1003294;-68
2023/12/12 09:16:29;;;;;;;38.70;23.40;;;;;;;6.42;97.60;98950.67;103086;1256;111226;-68
2023/12/12 09:18:56;;;;;;;34.10;21.90;;;;;;;6.44;97.98;98952.02;103024;1257;108873;-67
2023/12/12 09:21:23;;;;;;;29.80;19.90;;;;;;;6.46;97.85;98953.65;103008;1256;138597;-69
2023/12/12 09:23:50;;;;;;;25.50;18.60;;;;;;;6.47;97.67;98957.43;103106;1256;106679;-69
2023/12/12 09:26:18;;;;;;;27.60;18.70;;;;;;;6.47;97.53;98958.81;102999;1259;138373;-67
2023/12/12 09:28:47;;;;;;;24.90;18.20;;;;;;;6.47;97.55;98964.16;102420;1257;1002989;-68
2023/12/12 09:31:14;;;;;;;25.10;17.90;;;;;;;6.43;97.23;98965.33;102999;1255;138414;-69
2023/12/12 09:33:41;;;;;;;24.90;17.50;;;;;;;6.39;96.94;98971.35;103101;1256;97886;-69
2023/12/12 09:36:10;;;;;;;27.30;17.60;;;;;;;6.34;96.95;98976.19;102841;1257;107844;-68
2023/12/12 09:38:37;;;;;;;25.10;18.30;;;;;;;6.31;96.96;98984.92;103008;1259;140255;-68
2023/12/12 09:41:05;;;;;;;27.40;18.80;;;;;;;6.31;96.99;98984.59;102969;1259;112418;-68
2023/12/12 09:43:37;;;;;;;25.80;18.10;;;;;;;6.27;96.58;98988.14;102965;1256;138003;-68
2023/12/12 09:46:07;;;;;;;23.10;17.50;;;;;;;6.21;96.42;98992.33;103169;1259;97692;-68
2023/12/12 09:48:35;;;;;;;26.00;17.40;;;;;;;6.11;95.99;98997.19;103037;1257;107079;-67
2023/12/12 09:51:04;;;;;;;21.30;15.70;;;;;;;5.99;96.09;99002.94;102924;1256;138040;-68
2023/12/12 09:53:35;;;;;;;21.90;15.40;;;;;;;5.91;96.49;99008.02;103055;1256;111265;-68
2023/12/12 09:56:04;;;;;;;22.90;14.20;;;;;;;5.87;96.76;99011.91;103331;1257;1002497;-66
2023/12/12 09:58:32;;;;;;;20.00;14.50;;;;;;;5.83;96.77;99015.85;103110;1257;97833;-70
2023/12/12 10:01:02;;;;;;;16.30;12.00;;;;;;;5.82;96.92;99020.00;103044;1257;108439;-68
2023/12/12 10:03:30;;;;;;;16.60;12.50;;;;;;;5.82;97.00;99024.83;102972;1259;138147;-68
2023/12/12 10:06:04;;;;;;;16.30;11.90;;;;;;;5.83;96.71;99028.79;103109;1257;111828;-69
2023/12/12 10:08:31;;;;;;;16.40;11.70;;;;;;;5.80;96.45;99034.40;102855;1259;137784;-67
2023/12/12 10:10:58;;;;;;;15.20;11.50;;;;;;;5.77;96.18;99037.95;103233;1257;98422;-68
2023/12/12 10:13:25;;;;;;;16.30;11.40;;;;;;;5.72;95.98;99039.45;103034;1256;141303;-68
2023/12/12 10:15:53;;;;;;;14.90;9.90;;;;;;;5.64;95.52;99041.13;103038;1256;97807;-68
2023/12/12 10:18:22;;;;;;;13.90;9.20;;;;;;;5.58;95.71;99046.83;103091;1259;111648;-67
2023/12/12 10:20:50;;;;;;;13.00;8.90;;;;;;;5.52;95.47;99048.55;103246;1259;140091;-67
2023/12/12 10:23:17;;;;;;;12.20;9.10;;;;;;;5.44;95.23;99049.15;103113;1259;98492;-66
2023/12/12 10:25:49;;;;;;;12.90;9.80;;;;;;;5.39;95.24;99059.98;103066;1259;139295;-67
2023/12/12 10:28:17;;;;;;;11.90;9.40;;;;;;;5.34;95.24;99060.11;103113;1259;97670;-66
2023/12/12 10:30:51;;;;;;;11.40;8.90;;;;;;;5.29;94.99;99056.85;103232;1256;110972;-68
2023/12/12 10:33:18;;;;;;;10.50;8.40;;;;;;;5.18;94.88;99059.39;102923;1257;139375;-66
2023/12/12 10:35:47;;;;;;;11.50;7.60;;;;;;;5.08;95.04;99060.38;103080;1256;97820;-68
2023/12/12 10:38:13;;;;;;;11.20;7.70;;;;;;;5.05;95.37;99057.73;103009;1259;138234;-67
2023/12/12 10:40:40;;;;;;;11.80;8.60;;;;;;;5.02;95.53;99057.96;103125;1259;97872;-67
2023/12/12 10:43:09;;;;;;;11.00;8.00;;;;;;;5.01;95.91;99056.09;103100;1259;110574;-67
2023/12/12 10:45:38;;;;;;;12.10;8.30;;;;;;;5.02;95.97;99057.95;103566;1256;107265;-67
2023/12/12 10:48:07;;;;;;;12.30;8.70;;;;;;;5.04;96.33;99064.11;103128;1257;98543;-67
2023/12/12 10:50:37;;;;;;;11.70;8.50;;;;;;;5.07;96.18;99073.00;103142;1259;138621;-67
2023/12/12 10:53:04;;;;;;;12.80;8.40;;;;;;;5.07;96.00;99078.69;103311;1257;97821;-66
2023/12/12 10:55:32;;;;;;;11.20;8.40;;;;;;;5.04;96.22;99085.66;103019;1259;138895;-66
2023/12/12 10:57:59;;;;;;;11.40;8.70;;;;;;;5.03;96.16;99087.08;103072;1261;107070;-66
2023/12/12 11:00:27;;;;;;;13.10;8.90;;;;;;;5.03;96.00;99091.37;103114;1256;98378;-67
2023/12/12 11:02:58;;;;;;;12.20;9.30;;;;;;;4.99;95.83;99093.70;102966;1256;138184;-66
2023/12/12 11:05:27;;;;;;;14.70;10.30;;;;;;;5.00;95.72;99092.31;103043;1259;97684;-67
2023/12/12 11:07:54;;;;;;;15.10;11.30;;;;;;;4.98;95.53;99092.88;102277;1257;1003795;-66
2023/12/12 11:10:22;;;;;;;17.70;12.20;;;;;;;4.95;95.37;99095.04;103084;1257;106103;-68
2023/12/12 11:12:53;;;;;;;19.30;12.30;;;;;;;4.89;95.45;99104.68;103131;1257;97758;-68